sensor_id;sensor_type;location;lat;lon;timestamp;temperature;humidity
64855;DHT22;51321;50.428;8.378;2023-04-30T00:01:30;10.20;99.90
64855;DHT22;51321;50.428;8.378;2023-04-30T00:04:10;10.10;99.90
64855;DHT22;51321;50.428;8.378;2023-04-30T00:06:52;10.10;99.90
64855;DHT22;51321;50.428;8.378;2023-04-30T00:09:33;10.00;99.90
64855;DHT22;51321;50.428;8.378;2023-04-30T00:12:14;10.00;99.90
64855;DHT22;51321;50.428;8.378;2023-04-30T00:14:55;10.00;99.90
64855;DHT22;51321;50.428;8.378;2023-04-30T00:17:35;9.90;99.90
64855;DHT22;51321;50.428;8.378;2023-04-30T00:20:15;9.80;99.90
64855;DHT22;51321;50.428;8.378;2023-04-30T00:22:57;9.70;99.90
64855;DHT22;51321;50.428;8.378;2023-04-30T00:25:37;9.70;99.90
64855;DHT22;51321;50.428;8.378;2023-04-30T00:28:18;9.60;99.90
64855;DHT22;51321;50.428;8.378;2023-04-30T00:30:58;9.40;99.90
64855;DHT22;51321;50.428;8.378;2023-04-30T00:33:39;9.30;99.90
64855;DHT22;51321;50.428;8.378;2023-04-30T00:36:20;9.20;99.90
64855;DHT22;51321;50.428;8.378;2023-04-30T00:39:02;9.10;99.90
64855;DHT22;51321;50.428;8.378;2023-04-30T00:41:43;9.10;99.90
64855;DHT22;51321;50.428;8.378;2023-04-30T00:44:24;9.10;99.90
64855;DHT22;51321;50.428;8.378;2023-04-30T00:47:04;9.10;99.90
64855;DHT22;51321;50.428;8.378;2023-04-30T00:49:46;9.20;99.90
64855;DHT22;51321;50.428;8.378;2023-04-30T00:52:27;9.10;99.90
64855;DHT22;51321;50.428;8.378;2023-04-30T00:55:09;9.00;99.90
64855;DHT22;51321;50.428;8.378;2023-04-30T00:57:50;8.90;99.90
64855;DHT22;51321;50.428;8.378;2023-04-30T01:00:30;8.90;99.90
64855;DHT22;51321;50.428;8.378;2023-04-30T01:03:11;8.80;99.90
64855;DHT22;51321;50.428;8.378;2023-04-30T01:05:52;8.70;99.90
64855;DHT22;51321;50.428;8.378;2023-04-30T01:08:32;8.70;99.90
64855;DHT22;51321;50.428;8.378;2023-04-30T01:11:20;8.60;99.90
64855;DHT22;51321;50.428;8.378;2023-04-30T01:14:03;8.50;99.90
64855;DHT22;51321;50.428;8.378;2023-04-30T01:16:47;8.50;99.90
64855;DHT22;51321;50.428;8.378;2023-04-30T01:19:34;8.50;99.90
64855;DHT22;51321;50.428;8.378;2023-04-30T01:28:21;8.40;99.90
64855;DHT22;51321;50.428;8.378;2023-04-30T01:31:09;8.30;99.90
64855;DHT22;51321;50.428;8.378;2023-04-30T01:33:50;8.20;99.90
64855;DHT22;51321;50.428;8.378;2023-04-30T01:36:34;8.10;99.90
64855;DHT22;51321;50.428;8.378;2023-04-30T01:42:18;8.00;99.90
64855;DHT22;51321;50.428;8.378;2023-04-30T01:45:15;7.90;99.90
64855;DHT22;51321;50.428;8.378;2023-04-30T01:48:02;7.80;99.90
64855;DHT22;51321;50.428;8.378;2023-04-30T01:50:46;7.80;99.90
64855;DHT22;51321;50.428;8.378;2023-04-30T01:53:32;7.70;99.90
64855;DHT22;51321;50.428;8.378;2023-04-30T01:56:19;7.60;99.90
64855;DHT22;51321;50.428;8.378;2023-04-30T01:59:01;7.60;99.90
64855;DHT22;51321;50.428;8.378;2023-04-30T02:01:45;7.50;99.90
64855;DHT22;51321;50.428;8.378;2023-04-30T02:04:26;7.50;99.90
64855;DHT22;51321;50.428;8.378;2023-04-30T02:07:06;7.40;99.90
64855;DHT22;51321;50.428;8.378;2023-04-30T02:09:46;7.40;99.90
64855;DHT22;51321;50.428;8.378;2023-04-30T02:12:27;7.30;99.90
64855;DHT22;51321;50.428;8.378;2023-04-30T02:15:08;7.30;99.90
64855;DHT22;51321;50.428;8.378;2023-04-30T02:17:50;7.20;99.90
64855;DHT22;51321;50.428;8.378;2023-04-30T02:20:31;7.20;99.90
64855;DHT22;51321;50.428;8.378;2023-04-30T02:23:11;7.20;99.90
64855;DHT22;51321;50.428;8.378;2023-04-30T02:25:52;7.20;99.90
64855;DHT22;51321;50.428;8.378;2023-04-30T02:28:32;7.20;99.90
64855;DHT22;51321;50.428;8.378;2023-04-30T02:31:14;7.20;99.90
64855;DHT22;51321;50.428;8.378;2023-04-30T02:33:59;7.20;99.90
64855;DHT22;51321;50.428;8.378;2023-04-30T02:36:39;7.00;99.90
64855;DHT22;51321;50.428;8.378;2023-04-30T02:39:20;7.00;99.90
64855;DHT22;51321;50.428;8.378;2023-04-30T02:42:00;6.90;99.90
64855;DHT22;51321;50.428;8.378;2023-04-30T02:44:41;6.80;99.90
64855;DHT22;51321;50.428;8.378;2023-04-30T02:47:22;6.90;99.90
64855;DHT22;51321;50.428;8.378;2023-04-30T02:50:04;6.80;99.90
64855;DHT22;51321;50.428;8.378;2023-04-30T02:52:45;6.90;99.90
64855;DHT22;51321;50.428;8.378;2023-04-30T02:55:25;6.80;99.90
64855;DHT22;51321;50.428;8.378;2023-04-30T02:58:06;6.80;99.90
64855;DHT22;51321;50.428;8.378;2023-04-30T03:00:46;6.60;99.90
64855;DHT22;51321;50.428;8.378;2023-04-30T03:03:27;6.50;99.90
64855;DHT22;51321;50.428;8.378;2023-04-30T03:06:09;6.60;99.90
64855;DHT22;51321;50.428;8.378;2023-04-30T03:08:49;6.60;99.90
64855;DHT22;51321;50.428;8.378;2023-04-30T03:11:29;6.50;99.90
64855;DHT22;51321;50.428;8.378;2023-04-30T03:14:10;6.40;99.90
64855;DHT22;51321;50.428;8.378;2023-04-30T03:16:51;6.40;99.90
64855;DHT22;51321;50.428;8.378;2023-04-30T03:19:31;6.40;99.90
64855;DHT22;51321;50.428;8.378;2023-04-30T03:22:13;6.40;99.90
64855;DHT22;51321;50.428;8.378;2023-04-30T03:24:54;6.30;99.90
64855;DHT22;51321;50.428;8.378;2023-04-30T03:27:34;6.30;99.90
64855;DHT22;51321;50.428;8.378;2023-04-30T03:30:14;6.30;99.90
64855;DHT22;51321;50.428;8.378;2023-04-30T03:32:55;6.30;99.90
64855;DHT22;51321;50.428;8.378;2023-04-30T03:35:35;6.30;99.90
64855;DHT22;51321;50.428;8.378;2023-04-30T03:38:17;6.40;99.90
64855;DHT22;51321;50.428;8.378;2023-04-30T03:40:57;6.30;99.90
64855;DHT22;51321;50.428;8.378;2023-04-30T03:43:37;6.30;99.90
64855;DHT22;51321;50.428;8.378;2023-04-30T03:46:18;6.20;99.90
64855;DHT22;51321;50.428;8.378;2023-04-30T03:49:00;6.30;99.90
64855;DHT22;51321;50.428;8.378;2023-04-30T03:51:41;6.20;99.90
64855;DHT22;51321;50.428;8.378;2023-04-30T03:54:23;6.10;99.90
64855;DHT22;51321;50.428;8.378;2023-04-30T03:57:04;6.20;99.90
64855;DHT22;51321;50.428;8.378;2023-04-30T03:59:46;6.10;99.90
64855;DHT22;51321;50.428;8.378;2023-04-30T04:02:26;6.00;99.90
64855;DHT22;51321;50.428;8.378;2023-04-30T04:05:07;6.10;99.90
64855;DHT22;51321;50.428;8.378;2023-04-30T04:07:47;6.10;99.90
64855;DHT22;51321;50.428;8.378;2023-04-30T04:10:30;6.00;99.90
64855;DHT22;51321;50.428;8.378;2023-04-30T04:13:11;6.00;99.90
64855;DHT22;51321;50.428;8.378;2023-04-30T04:15:52;6.10;99.90
64855;DHT22;51321;50.428;8.378;2023-04-30T04:18:33;6.00;99.90
64855;DHT22;51321;50.428;8.378;2023-04-30T04:21:15;6.10;99.90
64855;DHT22;51321;50.428;8.378;2023-04-30T04:23:55;6.20;99.90
64855;DHT22;51321;50.428;8.378;2023-04-30T04:26:37;6.10;99.90
64855;DHT22;51321;50.428;8.378;2023-04-30T04:29:18;6.10;99.90
64855;DHT22;51321;50.428;8.378;2023-04-30T04:31:58;6.10;99.90
64855;DHT22;51321;50.428;8.378;2023-04-30T04:34:42;6.00;99.90
64855;DHT22;51321;50.428;8.378;2023-04-30T04:37:24;6.00;99.90
64855;DHT22;51321;50.428;8.378;2023-04-30T04:40:05;6.00;99.90
64855;DHT22;51321;50.428;8.378;2023-04-30T04:42:48;6.10;99.90
64855;DHT22;51321;50.428;8.378;2023-04-30T04:45:30;6.20;99.90
64855;DHT22;51321;50.428;8.378;2023-04-30T04:48:11;6.50;99.90
64855;DHT22;51321;50.428;8.378;2023-04-30T04:50:52;6.70;99.90
64855;DHT22;51321;50.428;8.378;2023-04-30T04:53:33;6.80;99.90
64855;DHT22;51321;50.428;8.378;2023-04-30T04:56:13;6.90;99.90
64855;DHT22;51321;50.428;8.378;2023-04-30T04:58:55;6.90;99.90
64855;DHT22;51321;50.428;8.378;2023-04-30T05:01:36;7.20;99.90
64855;DHT22;51321;50.428;8.378;2023-04-30T05:04:16;7.30;99.90
64855;DHT22;51321;50.428;8.378;2023-04-30T05:06:58;7.40;99.90
64855;DHT22;51321;50.428;8.378;2023-04-30T05:09:38;7.40;99.90
64855;DHT22;51321;50.428;8.378;2023-04-30T05:12:19;7.50;99.90
64855;DHT22;51321;50.428;8.378;2023-04-30T05:15:00;7.50;99.90
64855;DHT22;51321;50.428;8.378;2023-04-30T05:17:42;7.70;99.90
64855;DHT22;51321;50.428;8.378;2023-04-30T05:20:23;7.80;99.90
64855;DHT22;51321;50.428;8.378;2023-04-30T05:23:03;8.00;99.90
64855;DHT22;51321;50.428;8.378;2023-04-30T05:25:44;8.20;99.90
64855;DHT22;51321;50.428;8.378;2023-04-30T05:28:25;8.20;99.90
64855;DHT22;51321;50.428;8.378;2023-04-30T05:31:06;8.20;99.90
64855;DHT22;51321;50.428;8.378;2023-04-30T05:33:47;8.30;99.90
64855;DHT22;51321;50.428;8.378;2023-04-30T05:36:27;8.50;99.90
64855;DHT22;51321;50.428;8.378;2023-04-30T05:39:08;8.60;99.90
64855;DHT22;51321;50.428;8.378;2023-04-30T05:41:48;8.80;99.90
64855;DHT22;51321;50.428;8.378;2023-04-30T05:44:29;8.80;99.90
64855;DHT22;51321;50.428;8.378;2023-04-30T05:47:11;9.00;99.90
64855;DHT22;51321;50.428;8.378;2023-04-30T05:49:51;9.10;99.90
64855;DHT22;51321;50.428;8.378;2023-04-30T05:52:32;9.20;99.90
64855;DHT22;51321;50.428;8.378;2023-04-30T05:55:14;9.30;99.90
64855;DHT22;51321;50.428;8.378;2023-04-30T05:57:54;9.50;99.90
64855;DHT22;51321;50.428;8.378;2023-04-30T06:00:35;9.40;99.90
64855;DHT22;51321;50.428;8.378;2023-04-30T06:03:17;9.70;99.90
64855;DHT22;51321;50.428;8.378;2023-04-30T06:05:57;9.80;99.90
64855;DHT22;51321;50.428;8.378;2023-04-30T06:08:38;10.00;99.90
64855;DHT22;51321;50.428;8.378;2023-04-30T06:11:20;10.40;99.90
64855;DHT22;51321;50.428;8.378;2023-04-30T06:14:00;10.40;99.90
64855;DHT22;51321;50.428;8.378;2023-04-30T06:16:44;10.60;99.90
64855;DHT22;51321;50.428;8.378;2023-04-30T06:19:31;10.70;99.90
64855;DHT22;51321;50.428;8.378;2023-04-30T06:22:14;10.90;99.90
64855;DHT22;51321;50.428;8.378;2023-04-30T06:24:55;11.20;99.90
64855;DHT22;51321;50.428;8.378;2023-04-30T06:27:36;11.40;99.90
64855;DHT22;51321;50.428;8.378;2023-04-30T06:30:16;11.60;99.90
64855;DHT22;51321;50.428;8.378;2023-04-30T06:32:57;11.90;99.90
64855;DHT22;51321;50.428;8.378;2023-04-30T06:35:39;12.20;99.90
64855;DHT22;51321;50.428;8.378;2023-04-30T06:38:19;12.20;99.90
64855;DHT22;51321;50.428;8.378;2023-04-30T06:41:00;12.30;99.90
64855;DHT22;51321;50.428;8.378;2023-04-30T06:43:58;12.50;99.90
64855;DHT22;51321;50.428;8.378;2023-04-30T06:46:39;12.80;99.90
64855;DHT22;51321;50.428;8.378;2023-04-30T06:49:20;12.80;99.90
64855;DHT22;51321;50.428;8.378;2023-04-30T06:52:02;12.80;99.90
64855;DHT22;51321;50.428;8.378;2023-04-30T06:54:43;12.90;99.90
64855;DHT22;51321;50.428;8.378;2023-04-30T06:57:23;12.90;99.90
64855;DHT22;51321;50.428;8.378;2023-04-30T07:00:04;12.90;99.90
64855;DHT22;51321;50.428;8.378;2023-04-30T07:02:44;12.90;99.90
64855;DHT22;51321;50.428;8.378;2023-04-30T07:05:29;12.90;99.90
64855;DHT22;51321;50.428;8.378;2023-04-30T07:08:11;12.90;99.90
64855;DHT22;51321;50.428;8.378;2023-04-30T07:10:53;12.90;99.90
64855;DHT22;51321;50.428;8.378;2023-04-30T07:13:33;12.90;99.90
64855;DHT22;51321;50.428;8.378;2023-04-30T07:16:14;13.10;99.90
64855;DHT22;51321;50.428;8.378;2023-04-30T07:18:55;13.50;99.90
64855;DHT22;51321;50.428;8.378;2023-04-30T07:21:37;13.60;99.90
64855;DHT22;51321;50.428;8.378;2023-04-30T07:24:18;13.90;99.90
64855;DHT22;51321;50.428;8.378;2023-04-30T07:26:59;13.70;99.90
64855;DHT22;51321;50.428;8.378;2023-04-30T07:29:42;13.80;99.90
64855;DHT22;51321;50.428;8.378;2023-04-30T07:32:22;13.70;99.90
64855;DHT22;51321;50.428;8.378;2023-04-30T07:35:05;13.90;99.90
64855;DHT22;51321;50.428;8.378;2023-04-30T07:37:46;13.80;99.90
64855;DHT22;51321;50.428;8.378;2023-04-30T07:40:27;13.70;99.90
64855;DHT22;51321;50.428;8.378;2023-04-30T07:43:08;13.70;99.90
64855;DHT22;51321;50.428;8.378;2023-04-30T07:45:49;13.80;99.90
64855;DHT22;51321;50.428;8.378;2023-04-30T07:48:31;14.00;99.90
64855;DHT22;51321;50.428;8.378;2023-04-30T07:51:11;14.20;99.90
64855;DHT22;51321;50.428;8.378;2023-04-30T07:53:52;14.40;99.90
64855;DHT22;51321;50.428;8.378;2023-04-30T07:56:34;14.40;99.90
64855;DHT22;51321;50.428;8.378;2023-04-30T07:59:14;14.60;99.90
64855;DHT22;51321;50.428;8.378;2023-04-30T08:01:55;14.50;99.90
64855;DHT22;51321;50.428;8.378;2023-04-30T08:04:36;14.50;99.90
64855;DHT22;51321;50.428;8.378;2023-04-30T08:07:16;14.50;99.90
64855;DHT22;51321;50.428;8.378;2023-04-30T08:09:56;14.60;99.90
64855;DHT22;51321;50.428;8.378;2023-04-30T08:12:38;14.70;99.90
64855;DHT22;51321;50.428;8.378;2023-04-30T08:15:19;14.70;99.90
64855;DHT22;51321;50.428;8.378;2023-04-30T08:17:59;14.80;99.90
64855;DHT22;51321;50.428;8.378;2023-04-30T08:20:40;14.80;99.90
64855;DHT22;51321;50.428;8.378;2023-04-30T08:23:20;15.10;99.90
64855;DHT22;51321;50.428;8.378;2023-04-30T08:26:01;15.10;99.90
64855;DHT22;51321;50.428;8.378;2023-04-30T08:28:43;14.60;99.90
64855;DHT22;51321;50.428;8.378;2023-04-30T08:31:24;14.50;99.90
64855;DHT22;51321;50.428;8.378;2023-04-30T08:34:04;14.60;99.90
64855;DHT22;51321;50.428;8.378;2023-04-30T08:36:44;14.70;99.90
64855;DHT22;51321;50.428;8.378;2023-04-30T08:39:25;14.60;99.90
64855;DHT22;51321;50.428;8.378;2023-04-30T08:42:07;14.80;99.90
64855;DHT22;51321;50.428;8.378;2023-04-30T08:44:48;14.40;99.90
64855;DHT22;51321;50.428;8.378;2023-04-30T08:47:29;14.60;99.90
64855;DHT22;51321;50.428;8.378;2023-04-30T08:50:10;14.60;99.90
64855;DHT22;51321;50.428;8.378;2023-04-30T08:52:50;14.70;99.90
64855;DHT22;51321;50.428;8.378;2023-04-30T08:55:31;14.90;99.90
64855;DHT22;51321;50.428;8.378;2023-04-30T08:58:13;14.80;99.90
64855;DHT22;51321;50.428;8.378;2023-04-30T09:00:55;14.70;99.90
64855;DHT22;51321;50.428;8.378;2023-04-30T09:03:37;15.10;99.90
64855;DHT22;51321;50.428;8.378;2023-04-30T09:06:17;15.10;99.90
64855;DHT22;51321;50.428;8.378;2023-04-30T09:08:58;15.10;99.90
64855;DHT22;51321;50.428;8.378;2023-04-30T09:11:47;15.10;99.90
64855;DHT22;51321;50.428;8.378;2023-04-30T09:14:27;15.40;99.90
64855;DHT22;51321;50.428;8.378;2023-04-30T09:17:09;15.40;99.90
64855;DHT22;51321;50.428;8.378;2023-04-30T09:20:06;15.40;99.90
64855;DHT22;51321;50.428;8.378;2023-04-30T09:22:47;15.50;99.90
64855;DHT22;51321;50.428;8.378;2023-04-30T09:25:37;15.40;99.10
64855;DHT22;51321;50.428;8.378;2023-04-30T09:28:19;15.30;99.20
64855;DHT22;51321;50.428;8.378;2023-04-30T09:31:02;15.60;99.90
64855;DHT22;51321;50.428;8.378;2023-04-30T09:33:45;15.70;99.90
64855;DHT22;51321;50.428;8.378;2023-04-30T09:36:26;15.70;98.40
64855;DHT22;51321;50.428;8.378;2023-04-30T09:39:07;16.00;99.00
64855;DHT22;51321;50.428;8.378;2023-04-30T09:41:49;16.10;98.00
64855;DHT22;51321;50.428;8.378;2023-04-30T09:44:34;16.50;97.00
64855;DHT22;51321;50.428;8.378;2023-04-30T09:47:15;16.20;95.30
64855;DHT22;51321;50.428;8.378;2023-04-30T09:49:57;15.80;95.20
64855;DHT22;51321;50.428;8.378;2023-04-30T09:52:38;15.80;96.60
64855;DHT22;51321;50.428;8.378;2023-04-30T09:55:19;15.90;96.00
64855;DHT22;51321;50.428;8.378;2023-04-30T09:58:00;15.90;96.80
64855;DHT22;51321;50.428;8.378;2023-04-30T10:00:42;16.10;95.50
64855;DHT22;51321;50.428;8.378;2023-04-30T10:03:24;16.00;96.60
64855;DHT22;51321;50.428;8.378;2023-04-30T10:06:06;15.80;95.30
64855;DHT22;51321;50.428;8.378;2023-04-30T10:08:47;15.60;97.20
64855;DHT22;51321;50.428;8.378;2023-04-30T10:11:28;16.00;96.50
64855;DHT22;51321;50.428;8.378;2023-04-30T10:14:11;16.10;96.20
64855;DHT22;51321;50.428;8.378;2023-04-30T10:16:53;16.20;98.80
64855;DHT22;51321;50.428;8.378;2023-04-30T10:19:36;16.40;96.60
64855;DHT22;51321;50.428;8.378;2023-04-30T10:22:21;16.60;96.20
64855;DHT22;51321;50.428;8.378;2023-04-30T10:25:01;16.80;96.90
64855;DHT22;51321;50.428;8.378;2023-04-30T10:27:42;16.50;96.40
64855;DHT22;51321;50.428;8.378;2023-04-30T10:30:23;16.10;97.00
64855;DHT22;51321;50.428;8.378;2023-04-30T10:33:05;16.30;96.60
64855;DHT22;51321;50.428;8.378;2023-04-30T10:35:50;16.60;95.60
64855;DHT22;51321;50.428;8.378;2023-04-30T10:38:33;16.70;94.70
64855;DHT22;51321;50.428;8.378;2023-04-30T10:41:15;16.60;95.80
64855;DHT22;51321;50.428;8.378;2023-04-30T10:44:00;16.40;96.30
64855;DHT22;51321;50.428;8.378;2023-04-30T10:46:40;16.70;97.50
64855;DHT22;51321;50.428;8.378;2023-04-30T10:49:23;16.60;94.40
64855;DHT22;51321;50.428;8.378;2023-04-30T10:52:04;16.90;94.50
64855;DHT22;51321;50.428;8.378;2023-04-30T10:54:48;17.20;94.20
64855;DHT22;51321;50.428;8.378;2023-04-30T10:57:30;17.10;95.10
64855;DHT22;51321;50.428;8.378;2023-04-30T11:00:20;17.10;95.60
64855;DHT22;51321;50.428;8.378;2023-04-30T11:03:03;17.00;93.80
64855;DHT22;51321;50.428;8.378;2023-04-30T11:05:44;17.00;94.20
64855;DHT22;51321;50.428;8.378;2023-04-30T11:08:33;17.50;95.60
64855;DHT22;51321;50.428;8.378;2023-04-30T11:11:17;17.50;93.10
64855;DHT22;51321;50.428;8.378;2023-04-30T11:13:59;17.30;93.20
64855;DHT22;51321;50.428;8.378;2023-04-30T11:16:40;17.20;93.10
64855;DHT22;51321;50.428;8.378;2023-04-30T11:19:21;17.10;92.20
64855;DHT22;51321;50.428;8.378;2023-04-30T11:22:14;17.20;91.70
64855;DHT22;51321;50.428;8.378;2023-04-30T11:25:04;17.30;92.70
64855;DHT22;51321;50.428;8.378;2023-04-30T11:27:46;17.00;92.20
64855;DHT22;51321;50.428;8.378;2023-04-30T11:30:26;17.30;93.00
64855;DHT22;51321;50.428;8.378;2023-04-30T11:33:07;17.30;92.60
64855;DHT22;51321;50.428;8.378;2023-04-30T11:35:50;17.50;92.20
64855;DHT22;51321;50.428;8.378;2023-04-30T11:38:33;17.70;92.50
64855;DHT22;51321;50.428;8.378;2023-04-30T11:41:13;17.90;90.40
64855;DHT22;51321;50.428;8.378;2023-04-30T11:43:55;18.10;91.60
64855;DHT22;51321;50.428;8.378;2023-04-30T11:46:35;17.40;90.30
64855;DHT22;51321;50.428;8.378;2023-04-30T11:49:16;17.10;89.50
64855;DHT22;51321;50.428;8.378;2023-04-30T11:51:56;17.50;89.30
64855;DHT22;51321;50.428;8.378;2023-04-30T11:54:37;17.90;90.40
64855;DHT22;51321;50.428;8.378;2023-04-30T11:57:18;17.70;88.70
64855;DHT22;51321;50.428;8.378;2023-04-30T12:00:07;17.80;88.40
64855;DHT22;51321;50.428;8.378;2023-04-30T12:02:49;18.20;87.70
64855;DHT22;51321;50.428;8.378;2023-04-30T12:05:30;17.90;90.40
64855;DHT22;51321;50.428;8.378;2023-04-30T12:08:10;17.80;87.40
64855;DHT22;51321;50.428;8.378;2023-04-30T12:10:51;17.50;87.40
64855;DHT22;51321;50.428;8.378;2023-04-30T12:13:31;17.60;87.10
64855;DHT22;51321;50.428;8.378;2023-04-30T12:16:13;17.80;87.50
64855;DHT22;51321;50.428;8.378;2023-04-30T12:18:54;17.70;86.80
64855;DHT22;51321;50.428;8.378;2023-04-30T12:21:34;17.30;88.50
64855;DHT22;51321;50.428;8.378;2023-04-30T12:24:16;17.80;89.90
64855;DHT22;51321;50.428;8.378;2023-04-30T12:26:58;18.30;87.40
64855;DHT22;51321;50.428;8.378;2023-04-30T12:29:39;18.80;85.20
64855;DHT22;51321;50.428;8.378;2023-04-30T12:32:24;18.50;82.60
64855;DHT22;51321;50.428;8.378;2023-04-30T12:35:05;18.50;85.90
64855;DHT22;51321;50.428;8.378;2023-04-30T12:37:46;18.50;81.90
64855;DHT22;51321;50.428;8.378;2023-04-30T12:40:28;18.60;85.90
64855;DHT22;51321;50.428;8.378;2023-04-30T12:43:09;18.30;85.00
64855;DHT22;51321;50.428;8.378;2023-04-30T12:45:49;17.80;86.20
64855;DHT22;51321;50.428;8.378;2023-04-30T12:48:41;17.40;87.70
64855;DHT22;51321;50.428;8.378;2023-04-30T12:51:22;17.60;87.70
64855;DHT22;51321;50.428;8.378;2023-04-30T12:54:02;17.90;85.70
64855;DHT22;51321;50.428;8.378;2023-04-30T12:56:55;18.00;85.00
64855;DHT22;51321;50.428;8.378;2023-04-30T12:59:36;17.60;87.00
64855;DHT22;51321;50.428;8.378;2023-04-30T13:02:17;17.60;87.10
64855;DHT22;51321;50.428;8.378;2023-04-30T13:04:59;17.90;89.20
64855;DHT22;51321;50.428;8.378;2023-04-30T13:07:39;17.90;86.80
64855;DHT22;51321;50.428;8.378;2023-04-30T13:10:19;18.20;89.00
64855;DHT22;51321;50.428;8.378;2023-04-30T13:13:00;17.70;85.40
64855;DHT22;51321;50.428;8.378;2023-04-30T13:15:41;17.70;86.30
64855;DHT22;51321;50.428;8.378;2023-04-30T13:18:21;18.00;86.10
64855;DHT22;51321;50.428;8.378;2023-04-30T13:21:03;17.80;85.20
64855;DHT22;51321;50.428;8.378;2023-04-30T13:23:44;17.30;86.20
64855;DHT22;51321;50.428;8.378;2023-04-30T13:26:24;17.40;87.10
64855;DHT22;51321;50.428;8.378;2023-04-30T13:29:05;17.90;86.30
64855;DHT22;51321;50.428;8.378;2023-04-30T13:31:46;18.50;84.90
64855;DHT22;51321;50.428;8.378;2023-04-30T13:34:27;18.40;85.70
64855;DHT22;51321;50.428;8.378;2023-04-30T13:37:09;18.10;87.60
64855;DHT22;51321;50.428;8.378;2023-04-30T13:39:50;18.20;86.10
64855;DHT22;51321;50.428;8.378;2023-04-30T13:42:30;17.90;85.20
64855;DHT22;51321;50.428;8.378;2023-04-30T13:45:10;17.80;86.20
64855;DHT22;51321;50.428;8.378;2023-04-30T13:47:51;18.00;86.20
64855;DHT22;51321;50.428;8.378;2023-04-30T13:50:31;17.90;83.50
64855;DHT22;51321;50.428;8.378;2023-04-30T13:53:13;18.30;84.50
64855;DHT22;51321;50.428;8.378;2023-04-30T13:55:53;18.50;83.60
64855;DHT22;51321;50.428;8.378;2023-04-30T13:58:34;18.50;85.40
64855;DHT22;51321;50.428;8.378;2023-04-30T14:01:15;18.30;82.10
64855;DHT22;51321;50.428;8.378;2023-04-30T14:03:55;18.00;84.70
64855;DHT22;51321;50.428;8.378;2023-04-30T14:06:36;17.70;85.70
64855;DHT22;51321;50.428;8.378;2023-04-30T14:09:18;17.40;85.80
64855;DHT22;51321;50.428;8.378;2023-04-30T14:11:59;17.40;85.60
64855;DHT22;51321;50.428;8.378;2023-04-30T14:14:39;17.80;87.20
64855;DHT22;51321;50.428;8.378;2023-04-30T14:17:20;18.60;87.60
64855;DHT22;51321;50.428;8.378;2023-04-30T14:20:00;18.90;82.30
64855;DHT22;51321;50.428;8.378;2023-04-30T14:22:41;19.40;80.60
64855;DHT22;51321;50.428;8.378;2023-04-30T14:25:23;19.40;81.50
64855;DHT22;51321;50.428;8.378;2023-04-30T14:28:04;19.10;82.50
64855;DHT22;51321;50.428;8.378;2023-04-30T14:30:44;19.00;80.60
64855;DHT22;51321;50.428;8.378;2023-04-30T14:33:24;18.70;82.10
64855;DHT22;51321;50.428;8.378;2023-04-30T14:36:05;18.20;81.70
64855;DHT22;51321;50.428;8.378;2023-04-30T14:38:47;17.70;83.90
64855;DHT22;51321;50.428;8.378;2023-04-30T14:41:29;17.50;84.40
64855;DHT22;51321;50.428;8.378;2023-04-30T14:44:12;17.50;85.70
64855;DHT22;51321;50.428;8.378;2023-04-30T14:46:54;17.80;83.90
64855;DHT22;51321;50.428;8.378;2023-04-30T14:49:34;18.10;84.10
64855;DHT22;51321;50.428;8.378;2023-04-30T14:52:14;18.20;84.00
64855;DHT22;51321;50.428;8.378;2023-04-30T14:54:55;18.20;83.20
64855;DHT22;51321;50.428;8.378;2023-04-30T14:57:36;18.00;84.10
64855;DHT22;51321;50.428;8.378;2023-04-30T15:00:17;18.20;84.50
64855;DHT22;51321;50.428;8.378;2023-04-30T15:02:57;18.40;83.00
64855;DHT22;51321;50.428;8.378;2023-04-30T15:05:38;18.80;83.20
64855;DHT22;51321;50.428;8.378;2023-04-30T15:08:19;19.30;84.30
64855;DHT22;51321;50.428;8.378;2023-04-30T15:10:59;19.70;82.20
64855;DHT22;51321;50.428;8.378;2023-04-30T15:13:43;20.50;80.00
64855;DHT22;51321;50.428;8.378;2023-04-30T15:16:23;20.30;76.90
64855;DHT22;51321;50.428;8.378;2023-04-30T15:19:04;20.20;75.90
64855;DHT22;51321;50.428;8.378;2023-04-30T15:21:44;20.20;75.90
64855;DHT22;51321;50.428;8.378;2023-04-30T15:24:25;19.70;74.80
64855;DHT22;51321;50.428;8.378;2023-04-30T15:27:06;19.10;76.90
64855;DHT22;51321;50.428;8.378;2023-04-30T15:29:48;19.60;76.30
64855;DHT22;51321;50.428;8.378;2023-04-30T15:32:28;19.70;74.80
64855;DHT22;51321;50.428;8.378;2023-04-30T15:35:09;19.00;77.10
64855;DHT22;51321;50.428;8.378;2023-04-30T15:37:49;18.50;79.30
64855;DHT22;51321;50.428;8.378;2023-04-30T15:40:30;19.00;79.90
64855;DHT22;51321;50.428;8.378;2023-04-30T15:43:10;19.80;77.70
64855;DHT22;51321;50.428;8.378;2023-04-30T15:45:52;20.30;75.20
64855;DHT22;51321;50.428;8.378;2023-04-30T15:48:32;19.80;74.40
64855;DHT22;51321;50.428;8.378;2023-04-30T15:51:13;18.90;73.00
64855;DHT22;51321;50.428;8.378;2023-04-30T15:53:53;18.40;74.70
64855;DHT22;51321;50.428;8.378;2023-04-30T15:56:34;18.10;76.10
64855;DHT22;51321;50.428;8.378;2023-04-30T15:59:15;17.90;75.20
64855;DHT22;51321;50.428;8.378;2023-04-30T16:01:57;17.90;77.80
64855;DHT22;51321;50.428;8.378;2023-04-30T16:04:37;17.80;78.10
64855;DHT22;51321;50.428;8.378;2023-04-30T16:07:18;17.80;79.60
64855;DHT22;51321;50.428;8.378;2023-04-30T16:09:58;17.70;79.40
64855;DHT22;51321;50.428;8.378;2023-04-30T16:12:39;17.70;82.20
64855;DHT22;51321;50.428;8.378;2023-04-30T16:15:20;17.60;82.30
64855;DHT22;51321;50.428;8.378;2023-04-30T16:18:03;17.50;82.30
64855;DHT22;51321;50.428;8.378;2023-04-30T16:20:44;17.60;80.60
64855;DHT22;51321;50.428;8.378;2023-04-30T16:23:26;17.70;83.80
64855;DHT22;51321;50.428;8.378;2023-04-30T16:26:07;17.70;80.30
64855;DHT22;51321;50.428;8.378;2023-04-30T16:28:47;17.60;78.70
64855;DHT22;51321;50.428;8.378;2023-04-30T16:31:28;17.50;78.30
64855;DHT22;51321;50.428;8.378;2023-04-30T16:34:09;17.50;77.90
64855;DHT22;51321;50.428;8.378;2023-04-30T16:36:50;17.40;79.70
64855;DHT22;51321;50.428;8.378;2023-04-30T16:39:30;17.40;81.60
64855;DHT22;51321;50.428;8.378;2023-04-30T16:42:11;17.40;81.70
64855;DHT22;51321;50.428;8.378;2023-04-30T16:44:51;17.30;79.30
64855;DHT22;51321;50.428;8.378;2023-04-30T16:47:32;17.20;80.60
64855;DHT22;51321;50.428;8.378;2023-04-30T16:50:14;17.30;83.50
64855;DHT22;51321;50.428;8.378;2023-04-30T16:52:54;17.20;81.60
64855;DHT22;51321;50.428;8.378;2023-04-30T16:55:35;17.20;81.40
64855;DHT22;51321;50.428;8.378;2023-04-30T16:58:15;17.30;82.70
64855;DHT22;51321;50.428;8.378;2023-04-30T17:00:56;17.30;82.90
64855;DHT22;51321;50.428;8.378;2023-04-30T17:03:36;17.30;82.40
64855;DHT22;51321;50.428;8.378;2023-04-30T17:06:18;17.30;79.00
64855;DHT22;51321;50.428;8.378;2023-04-30T17:08:58;17.40;79.60
64855;DHT22;51321;50.428;8.378;2023-04-30T17:11:38;17.40;79.40
64855;DHT22;51321;50.428;8.378;2023-04-30T17:14:19;17.50;79.90